Time;durP1;ratioP1;P1;durP2;ratioP2;P2;SDS_P1;SDS_P2;PMS_P1;PMS_P2;Temp;Humidity;BMP_temperature;BMP_pressure;BME280_temperature;BME280_humidity;BME280_pressure;Samples;Min_cycle;Max_cycle;Signal;HPM_P1;HPM_P2
2023/07/01 00:02:12;;;;;;;11.20;10.20;;;;;;;-128.00;-1.00;-1.00;18506;296;7504579;-33
2023/07/01 00:04:40;;;;;;;10.10;9.10;;;;;;;-128.00;-1.00;-1.00;18492;287;7506733;-36
2023/07/01 00:07:07;;;;;;;6.90;6.30;;;;;;;-128.00;-1.00;-1.00;18489;287;7504973;-37
2023/07/01 00:09:32;;;;;;;9.50;8.60;;;;;;;-128.00;-1.00;-1.00;18459;296;7505773;-33
2023/07/01 00:11:58;;;;;;;7.50;6.80;;;;;;;-128.00;-1.00;-1.00;18471;295;7506529;-37
2023/07/01 00:14:24;;;;;;;12.40;8.40;;;;;;;-128.00;-1.00;-1.00;18894;288;7504949;-37
2023/07/01 00:16:50;;;;;;;10.20;9.30;;;;;;;-128.00;-1.00;-1.00;18906;315;7504302;-34
2023/07/01 00:19:17;;;;;;;8.10;7.40;;;;;;;-128.00;-1.00;-1.00;18878;307;7504359;-34
2023/07/01 00:21:43;;;;;;;10.80;9.80;;;;;;;-128.00;-1.00;-1.00;18472;296;7504219;-37
2023/07/01 00:24:09;;;;;;;9.10;8.40;;;;;;;-128.00;-1.00;-1.00;18480;347;7504783;-37
2023/07/01 00:26:35;;;;;;;8.40;7.70;;;;;;;-128.00;-1.00;-1.00;18875;287;7504322;-34
2023/07/01 00:29:01;;;;;;;8.00;7.40;;;;;;;-128.00;-1.00;-1.00;18476;295;7504792;-34
2023/07/01 00:31:26;;;;;;;10.00;9.00;;;;;;;-128.00;-1.00;-1.00;18482;297;7504915;-34
2023/07/01 00:33:52;;;;;;;11.70;9.10;;;;;;;-128.00;-1.00;-1.00;18921;295;7504546;-37
2023/07/01 01:18:16;;;;;;;29.80;20.30;;;;;;;-99.30;19.20;19723.44;19565;301;8045718;-33
2023/07/01 01:20:43;;;;;;;20.80;16.70;;;;;;;-128.00;-1.00;-1.00;18204;297;7505665;-36
2023/07/01 01:23:16;;;;;;;17.20;14.90;;;;;;;-128.00;-1.00;-1.00;18481;305;7505269;-37
2023/07/01 01:25:48;;;;;;;18.10;15.60;;;;;;;-128.00;-1.00;-1.00;18480;285;7505164;-37
2023/07/01 01:28:14;;;;;;;25.60;15.50;;;;;;;-128.00;-1.00;-1.00;18466;300;7506398;-36
2023/07/01 01:30:40;;;;;;;26.20;16.00;;;;;;;-128.00;-1.00;-1.00;18456;289;7504395;-36
2023/07/01 01:33:06;;;;;;;16.10;12.90;;;;;;;-128.00;-1.00;-1.00;18460;285;7505936;-33
2023/07/01 01:35:32;;;;;;;17.80;14.80;;;;;;;-128.00;-1.00;-1.00;18446;296;7505290;-33
2023/07/01 01:38:05;;;;;;;15.70;14.10;;;;;;;-128.00;-1.00;-1.00;18458;297;7504689;-32
2023/07/01 01:40:42;;;;;;;19.60;17.50;;;;;;;-128.00;-1.00;-1.00;18456;340;7504642;-36
2023/07/01 01:43:14;;;;;;;20.00;16.40;;;;;;;-128.00;-1.00;-1.00;18479;296;7504460;-33
2023/07/01 01:45:39;;;;;;;;;;;;;;;-128.00;-1.00;-1.00;18455;289;7506176;-34
2023/07/01 01:48:06;;;;;;;21.80;15.60;;;;;;;-128.00;-1.00;-1.00;18881;320;7504920;-33
2023/07/01 01:50:32;;;;;;;22.30;13.80;;;;;;;-128.00;-1.00;-1.00;18876;348;7504644;-36
2023/07/01 01:52:58;;;;;;;19.20;17.10;;;;;;;-128.00;-1.00;-1.00;18859;340;7505496;-34
2023/07/01 01:55:24;;;;;;;18.90;16.20;;;;;;;-128.00;-1.00;-1.00;18875;348;7504656;-34
2023/07/01 01:57:51;;;;;;;21.30;14.30;;;;;;;-128.00;-1.00;-1.00;18863;297;7504645;-34
2023/07/01 02:00:17;;;;;;;15.50;13.90;;;;;;;-128.00;-1.00;-1.00;18462;297;7504766;-37
2023/07/01 02:02:43;;;;;;;14.90;12.70;;;;;;;-128.00;-1.00;-1.00;18451;297;7504860;-33
2023/07/01 02:05:09;;;;;;;15.90;13.20;;;;;;;-128.00;-1.00;-1.00;18458;285;7504510;-34
2023/07/01 02:07:35;;;;;;;16.70;13.50;;;;;;;-128.00;-1.00;-1.00;18913;297;7504316;-34
2023/07/01 02:10:02;;;;;;;15.90;12.90;;;;;;;-128.00;-1.00;-1.00;18880;297;7504260;-37
2023/07/01 02:12:29;;;;;;;13.30;11.90;;;;;;;-128.00;-1.00;-1.00;18467;296;7504717;-36
2023/07/01 02:14:54;;;;;;;12.70;11.50;;;;;;;-128.00;-1.00;-1.00;18494;297;7504644;-34
2023/07/01 02:17:20;;;;;;;18.60;14.00;;;;;;;-128.00;-1.00;-1.00;18870;287;7504849;-37
2023/07/01 02:19:47;;;;;;;13.10;11.60;;;;;;;-128.00;-1.00;-1.00;18491;296;7504359;-37
2023/07/01 02:22:13;;;;;;;19.10;10.10;;;;;;;-128.00;-1.00;-1.00;18473;295;7506145;-37
2023/07/01 02:24:39;;;;;;;21.20;10.50;;;;;;;-128.00;-1.00;-1.00;18450;288;7504352;-33
2023/07/01 02:27:05;;;;;;;15.40;11.00;;;;;;;-128.00;-1.00;-1.00;18853;288;7504913;-33
2023/07/01 02:29:31;;;;;;;10.00;9.10;;;;;;;-128.00;-1.00;-1.00;18487;296;7504484;-33
2023/07/01 02:31:57;;;;;;;11.80;10.40;;;;;;;-128.00;-1.00;-1.00;18897;296;7504834;-32
2023/07/01 02:34:27;;;;;;;12.80;11.50;;;;;;;-128.00;-1.00;-1.00;18864;348;7504367;-34
2023/07/01 02:36:56;;;;;;;10.50;9.50;;;;;;;-128.00;-1.00;-1.00;18465;288;7506493;-34
2023/07/01 02:39:21;;;;;;;11.00;9.90;;;;;;;-128.00;-1.00;-1.00;18500;288;7504588;-33
2023/07/01 02:41:47;;;;;;;9.50;8.70;;;;;;;-128.00;-1.00;-1.00;18497;336;7507072;-35
2023/07/01 02:44:13;;;;;;;13.50;12.00;;;;;;;-128.00;-1.00;-1.00;18889;295;7504946;-36
2023/07/01 02:46:40;;;;;;;14.80;11.00;;;;;;;-128.00;-1.00;-1.00;18853;336;7504446;-37
2023/07/01 02:49:06;;;;;;;16.30;13.20;;;;;;;-128.00;-1.00;-1.00;18853;295;7505703;-33
2023/07/01 02:51:32;;;;;;;14.80;11.10;;;;;;;-128.00;-1.00;-1.00;18851;288;7506209;-37
2023/07/01 02:53:58;;;;;;;14.70;12.30;;;;;;;-128.00;-1.00;-1.00;18863;341;7505182;-34
2023/07/01 02:56:24;;;;;;;15.40;13.20;;;;;;;-128.00;-1.00;-1.00;18868;288;7503938;-37
2023/07/01 02:58:51;;;;;;;15.50;13.60;;;;;;;-128.00;-1.00;-1.00;18850;288;7504509;-36
2023/07/01 03:01:17;;;;;;;18.80;12.30;;;;;;;-128.00;-1.00;-1.00;18887;295;7504923;-33
2023/07/01 03:03:43;;;;;;;15.10;12.60;;;;;;;-128.00;-1.00;-1.00;18864;288;7505078;-37
2023/07/01 03:06:09;;;;;;;13.60;11.80;;;;;;;-128.00;-1.00;-1.00;18855;288;7505146;-34
2023/07/01 03:08:35;;;;;;;15.40;9.50;;;;;;;-128.00;-1.00;-1.00;18460;295;7504886;-37
2023/07/01 03:11:03;;;;;;;15.00;13.40;;;;;;;-128.00;-1.00;-1.00;18471;288;7504116;-37
2023/07/01 03:13:28;;;;;;;18.00;12.10;;;;;;;-128.00;-1.00;-1.00;18460;304;7506299;-33
2023/07/01 03:15:56;;;;;;;18.10;13.70;;;;;;;-128.00;-1.00;-1.00;18885;288;7505997;-32
2023/07/01 03:18:22;;;;;;;16.50;12.60;;;;;;;-128.00;-1.00;-1.00;18507;295;7504551;-36
2023/07/01 03:20:49;;;;;;;15.20;12.80;;;;;;;-128.00;-1.00;-1.00;18451;288;7506157;-33
2023/07/01 03:23:15;;;;;;;27.20;12.70;;;;;;;-128.00;-1.00;-1.00;18441;331;7505622;-36
2023/07/01 03:25:41;;;;;;;13.60;12.10;;;;;;;-128.00;-1.00;-1.00;18480;296;7506455;-36
2023/07/01 03:28:08;;;;;;;15.80;14.10;;;;;;;-128.00;-1.00;-1.00;18453;295;7505197;-33
2023/07/01 03:30:34;;;;;;;14.50;13.10;;;;;;;-128.00;-1.00;-1.00;18461;295;7506541;-33
2023/07/01 03:33:00;;;;;;;15.10;12.40;;;;;;;-128.00;-1.00;-1.00;18457;288;7504310;-33
2023/07/01 03:35:26;;;;;;;16.40;14.60;;;;;;;-128.00;-1.00;-1.00;18460;288;7506289;-33
2023/07/01 03:37:51;;;;;;;14.50;12.00;;;;;;;-128.00;-1.00;-1.00;18493;295;7504634;-32
2023/07/01 03:40:18;;;;;;;14.30;11.90;;;;;;;-128.00;-1.00;-1.00;18866;288;7505097;-37
2023/07/01 03:42:44;;;;;;;15.60;13.90;;;;;;;-128.00;-1.00;-1.00;18869;296;7504124;-32
2023/07/01 03:45:11;;;;;;;20.90;17.10;;;;;;;-128.00;-1.00;-1.00;18885;295;7504151;-32
2023/07/01 03:47:38;;;;;;;16.60;14.80;;;;;;;-128.00;-1.00;-1.00;18514;295;7506027;-32
2023/07/01 03:50:07;;;;;;;15.40;12.50;;;;;;;-128.00;-1.00;-1.00;18453;288;7504427;-36
2023/07/01 03:52:33;;;;;;;15.00;13.40;;;;;;;-128.00;-1.00;-1.00;18471;295;7504438;-36
2023/07/01 03:54:59;;;;;;;18.80;14.80;;;;;;;-128.00;-1.00;-1.00;18457;307;7504336;-37
2023/07/01 03:57:25;;;;;;;17.90;13.40;;;;;;;-128.00;-1.00;-1.00;18862;295;7504652;-37
2023/07/01 03:59:51;;;;;;;20.70;14.60;;;;;;;-128.00;-1.00;-1.00;18873;295;7504897;-36
2023/07/01 04:02:17;;;;;;;20.90;14.70;;;;;;;-128.00;-1.00;-1.00;18869;288;7505270;-37
2023/07/01 04:04:44;;;;;;;16.10;14.20;;;;;;;-128.00;-1.00;-1.00;18862;296;7504700;-33
2023/07/01 04:07:10;;;;;;;20.30;15.40;;;;;;;-128.00;-1.00;-1.00;18903;348;7504589;-36
2023/07/01 04:09:36;;;;;;;18.10;15.30;;;;;;;-128.00;-1.00;-1.00;18846;349;7505209;-33
2023/07/01 04:12:02;;;;;;;25.60;14.40;;;;;;;-128.00;-1.00;-1.00;18886;284;7505202;-36
2023/07/01 04:14:29;;;;;;;22.20;14.90;;;;;;;-128.00;-1.00;-1.00;18867;296;7505416;-36
2023/07/01 04:16:55;;;;;;;16.40;14.70;;;;;;;-128.00;-1.00;-1.00;18856;295;7504408;-33
2023/07/01 04:19:22;;;;;;;13.60;10.10;;;;;;;-128.00;-1.00;-1.00;18463;288;7504883;-33
2023/07/01 04:21:48;;;;;;;15.70;13.30;;;;;;;-128.00;-1.00;-1.00;18474;284;7506625;-33
2023/07/01 04:24:14;;;;;;;18.30;14.70;;;;;;;-128.00;-1.00;-1.00;18447;312;7505629;-36
2023/07/01 04:26:41;;;;;;;22.00;15.40;;;;;;;-128.00;-1.00;-1.00;18476;344;7505257;-32
2023/07/01 04:29:07;;;;;;;16.60;11.30;;;;;;;-128.00;-1.00;-1.00;18461;296;7505699;-33
2023/07/01 04:31:33;;;;;;;19.00;15.20;;;;;;;-128.00;-1.00;-1.00;18452;288;7504704;-36
2023/07/01 04:33:59;;;;;;;21.90;15.40;;;;;;;-128.00;-1.00;-1.00;18479;284;7505162;-36
2023/07/01 04:36:25;;;;;;;26.50;17.60;;;;;;;-128.00;-1.00;-1.00;18841;297;7505073;-37
2023/07/01 04:38:51;;;;;;;22.80;17.00;;;;;;;-128.00;-1.00;-1.00;18852;295;7504835;-34
2023/07/01 04:41:18;;;;;;;22.90;17.70;;;;;;;-128.00;-1.00;-1.00;18859;296;7505145;-37
2023/07/01 04:43:44;;;;;;;39.50;20.40;;;;;;;-128.00;-1.00;-1.00;18849;296;7504400;-40
2023/07/01 04:46:10;;;;;;;23.40;19.40;;;;;;;-128.00;-1.00;-1.00;18870;295;7504477;-38
2023/07/01 04:48:36;;;;;;;22.30;18.90;;;;;;;-128.00;-1.00;-1.00;18877;296;7504426;-37
2023/07/01 04:51:02;;;;;;;26.40;20.40;;;;;;;-128.00;-1.00;-1.00;18890;288;7504251;-32
2023/07/01 04:53:28;;;;;;;27.60;18.30;;;;;;;-128.00;-1.00;-1.00;18854;288;7505434;-32
2023/07/01 04:55:55;;;;;;;27.60;17.90;;;;;;;-128.00;-1.00;-1.00;18876;288;7504961;-33
2023/07/01 04:58:21;;;;;;;19.40;15.20;;;;;;;-128.00;-1.00;-1.00;18864;296;7505106;-32
2023/07/01 05:00:47;;;;;;;27.90;17.90;;;;;;;-128.00;-1.00;-1.00;18902;296;7505227;-36
2023/07/01 05:03:13;;;;;;;30.40;18.00;;;;;;;-128.00;-1.00;-1.00;18862;296;7505022;-36
2023/07/01 05:05:39;;;;;;;23.40;17.40;;;;;;;-128.00;-1.00;-1.00;18858;288;7504931;-35
2023/07/01 05:08:05;;;;;;;17.60;12.20;;;;;;;-128.00;-1.00;-1.00;18882;288;7505137;-36
2023/07/01 05:10:31;;;;;;;32.80;21.40;;;;;;;-128.00;-1.00;-1.00;18862;348;7504652;-33
2023/07/01 05:12:58;;;;;;;36.40;20.20;;;;;;;-128.00;-1.00;-1.00;18882;288;7506342;-32
2023/07/01 05:15:24;;;;;;;29.90;20.20;;;;;;;-128.00;-1.00;-1.00;18861;296;7504472;-32
2023/07/01 05:17:50;;;;;;;30.40;19.90;;;;;;;-128.00;-1.00;-1.00;18874;288;7505963;-36
2023/07/01 05:20:16;;;;;;;29.80;20.70;;;;;;;-128.00;-1.00;-1.00;18859;288;7504478;-34
2023/07/01 05:22:43;;;;;;;32.70;21.00;;;;;;;-128.00;-1.00;-1.00;18851;288;7505090;-38
2023/07/01 05:25:09;;;;;;;24.40;18.60;;;;;;;-128.00;-1.00;-1.00;18886;320;7504451;-35
2023/07/01 05:27:35;;;;;;;25.60;17.60;;;;;;;-128.00;-1.00;-1.00;18870;348;7504759;-33
2023/07/01 05:30:02;;;;;;;26.60;17.50;;;;;;;-128.00;-1.00;-1.00;18874;296;7504419;-33
2023/07/01 05:32:28;;;;;;;22.30;17.30;;;;;;;-128.00;-1.00;-1.00;18864;288;7505520;-36
2023/07/01 05:34:54;;;;;;;28.90;17.60;;;;;;;-128.00;-1.00;-1.00;18875;331;7504679;-36
2023/07/01 05:37:20;;;;;;;25.50;17.20;;;;;;;-128.00;-1.00;-1.00;18885;296;7504568;-33
2023/07/01 05:39:47;;;;;;;36.70;22.40;;;;;;;-128.00;-1.00;-1.00;18861;297;7504195;-33
2023/07/01 05:42:13;;;;;;;21.80;14.10;;;;;;;-128.00;-1.00;-1.00;18458;296;7505612;-36
2023/07/01 05:44:38;;;;;;;27.10;16.50;;;;;;;-128.00;-1.00;-1.00;18497;300;7504429;-33
2023/07/01 05:47:04;;;;;;;30.90;19.60;;;;;;;-128.00;-1.00;-1.00;18469;296;7504832;-33
2023/07/01 05:49:30;;;;;;;29.70;20.00;;;;;;;-128.00;-1.00;-1.00;18466;296;7504722;-33
2023/07/01 05:51:56;;;;;;;26.70;14.50;;;;;;;-128.00;-1.00;-1.00;18474;296;7504981;-33
2023/07/01 05:54:23;;;;;;;23.80;17.30;;;;;;;-128.00;-1.00;-1.00;18878;288;7505013;-37
2023/07/01 05:56:48;;;;;;;28.70;17.50;;;;;;;-128.00;-1.00;-1.00;18490;296;7504527;-37
2023/07/01 05:59:14;;;;;;;29.40;18.70;;;;;;;-128.00;-1.00;-1.00;18460;295;7504210;-36
2023/07/01 06:01:40;;;;;;;19.80;16.00;;;;;;;-128.00;-1.00;-1.00;18447;288;7504548;-36
2023/07/01 06:04:06;;;;;;;22.30;16.80;;;;;;;-128.00;-1.00;-1.00;18474;295;7504330;-33
2023/07/01 06:06:32;;;;;;;37.30;23.00;;;;;;;-128.00;-1.00;-1.00;18898;295;7504760;-33
2023/07/01 06:08:58;;;;;;;23.90;18.60;;;;;;;-128.00;-1.00;-1.00;18874;296;7504742;-33
2023/07/01 06:11:25;;;;;;;24.50;15.90;;;;;;;-128.00;-1.00;-1.00;18872;295;7504529;-37
2023/07/01 06:13:51;;;;;;;28.60;17.70;;;;;;;-128.00;-1.00;-1.00;18857;296;7504899;-33
2023/07/01 06:16:17;;;;;;;39.70;21.00;;;;;;;-128.00;-1.00;-1.00;18866;295;7504352;-36
2023/07/01 06:18:43;;;;;;;30.40;20.40;;;;;;;-128.00;-1.00;-1.00;18845;342;7504319;-37
2023/07/01 06:21:09;;;;;;;33.00;21.40;;;;;;;-128.00;-1.00;-1.00;18874;296;7504695;-34
2023/07/01 06:23:36;;;;;;;38.60;20.80;;;;;;;-128.00;-1.00;-1.00;18920;295;7504323;-37
2023/07/01 06:26:03;;;;;;;35.50;21.60;;;;;;;-128.00;-1.00;-1.00;18870;297;7505997;-33
2023/07/01 06:28:28;;;;;;;33.20;16.80;;;;;;;-128.00;-1.00;-1.00;18478;323;7504749;-35
2023/07/01 06:30:54;;;;;;;34.20;19.80;;;;;;;-128.00;-1.00;-1.00;18885;288;7504954;-37
2023/07/01 06:33:21;;;;;;;36.50;21.40;;;;;;;-128.00;-1.00;-1.00;18880;288;7504726;-34
2023/07/01 06:35:47;;;;;;;38.50;23.20;;;;;;;-128.00;-1.00;-1.00;18870;295;7504297;-38
2023/07/01 06:38:13;;;;;;;45.00;23.40;;;;;;;-128.00;-1.00;-1.00;18879;295;7504420;-36
2023/07/01 06:40:39;;;;;;;36.90;23.10;;;;;;;-128.00;-1.00;-1.00;18861;337;7504439;-33
2023/07/01 06:43:06;;;;;;;40.30;23.50;;;;;;;-128.00;-1.00;-1.00;18886;296;7504410;-32
2023/07/01 06:45:32;;;;;;;30.80;18.60;;;;;;;-128.00;-1.00;-1.00;18469;308;7504229;-33
2023/07/01 06:47:58;;;;;;;29.80;19.30;;;;;;;-128.00;-1.00;-1.00;18440;297;7505605;-36
2023/07/01 06:50:24;;;;;;;27.40;18.80;;;;;;;-128.00;-1.00;-1.00;18481;311;7504537;-32
2023/07/01 06:52:50;;;;;;;28.70;18.40;;;;;;;-128.00;-1.00;-1.00;18493;288;7506159;-34
2023/07/01 06:55:15;;;;;;;26.60;19.30;;;;;;;-128.00;-1.00;-1.00;18460;296;7504472;-33
2023/07/01 06:57:41;;;;;;;39.50;20.50;;;;;;;-128.00;-1.00;-1.00;18509;288;7505987;-32
2023/07/01 07:00:12;;;;;;;27.60;18.70;;;;;;;-128.00;-1.00;-1.00;18474;288;7504524;-36
2023/07/01 07:02:38;;;;;;;32.50;19.50;;;;;;;-128.00;-1.00;-1.00;18489;295;7504534;-36
2023/07/01 07:05:04;;;;;;;33.20;21.50;;;;;;;-128.00;-1.00;-1.00;18454;288;7506458;-35
2023/07/01 07:07:30;;;;;;;36.70;18.50;;;;;;;-128.00;-1.00;-1.00;18460;348;7505173;-36
2023/07/01 07:09:55;;;;;;;41.00;18.30;;;;;;;-128.00;-1.00;-1.00;18515;347;7504825;-33
2023/07/01 07:12:22;;;;;;;33.20;20.90;;;;;;;-128.00;-1.00;-1.00;18862;288;7504614;-36
2023/07/01 07:14:48;;;;;;;35.00;21.60;;;;;;;-128.00;-1.00;-1.00;18860;295;7505574;-36
2023/07/01 07:17:14;;;;;;;34.10;20.50;;;;;;;-128.00;-1.00;-1.00;18868;296;7504467;-36
2023/07/01 07:19:40;;;;;;;29.10;19.20;;;;;;;-128.00;-1.00;-1.00;18876;336;7505082;-34
2023/07/01 07:22:06;;;;;;;37.20;23.80;;;;;;;-128.00;-1.00;-1.00;18865;288;7504554;-36
2023/07/01 07:24:33;;;;;;;33.90;20.20;;;;;;;-128.00;-1.00;-1.00;18860;312;7505320;-34
2023/07/01 07:27:00;;;;;;;35.80;23.10;;;;;;;-128.00;-1.00;-1.00;18874;295;7504511;-35
2023/07/01 07:29:30;;;;;;;28.30;18.50;;;;;;;-128.00;-1.00;-1.00;18471;296;7506669;-36
2023/07/01 07:31:56;;;;;;;24.80;16.10;;;;;;;-128.00;-1.00;-1.00;18459;288;7505265;-34
2023/07/01 07:34:23;;;;;;;22.60;15.70;;;;;;;-128.00;-1.00;-1.00;18483;288;7505979;-33
2023/07/01 07:36:48;;;;;;;27.50;20.60;;;;;;;-128.00;-1.00;-1.00;18474;296;7505815;-36
2023/07/01 07:39:14;;;;;;;28.90;19.00;;;;;;;-128.00;-1.00;-1.00;18465;296;7504497;-34
2023/07/01 07:41:44;;;;;;;32.60;17.70;;;;;;;-128.00;-1.00;-1.00;18472;288;7505001;-33
2023/07/01 07:44:09;;;;;;;25.80;19.10;;;;;;;-128.00;-1.00;-1.00;18508;295;7504812;-36
2023/07/01 07:46:36;;;;;;;26.50;17.40;;;;;;;-128.00;-1.00;-1.00;18871;295;7504829;-33
2023/07/01 07:49:02;;;;;;;31.50;20.20;;;;;;;-128.00;-1.00;-1.00;18867;295;7504352;-33
2023/07/01 07:51:28;;;;;;;25.60;17.90;;;;;;;-128.00;-1.00;-1.00;18892;296;7504585;-35
2023/07/01 07:53:54;;;;;;;28.20;18.20;;;;;;;-128.00;-1.00;-1.00;18859;323;7505535;-33
2023/07/01 07:56:20;;;;;;;28.70;19.40;;;;;;;-128.00;-1.00;-1.00;18902;331;7506393;-33
2023/07/01 07:58:46;;;;;;;25.70;16.50;;;;;;;-128.00;-1.00;-1.00;18835;296;7505027;-36
2023/07/01 08:01:13;;;;;;;23.00;16.70;;;;;;;-128.00;-1.00;-1.00;18865;288;7504276;-36
2023/07/01 08:03:40;;;;;;;32.70;17.90;;;;;;;-128.00;-1.00;-1.00;18874;296;7504200;-33
2023/07/01 08:06:06;;;;;;;24.70;18.40;;;;;;;-128.00;-1.00;-1.00;18460;288;7504823;-36
2023/07/01 08:08:32;;;;;;;25.50;17.90;;;;;;;-128.00;-1.00;-1.00;18457;288;7504491;-34
2023/07/01 08:10:58;;;;;;;23.20;17.80;;;;;;;-128.00;-1.00;-1.00;18464;295;7504297;-36
2023/07/01 08:13:25;;;;;;;20.60;17.50;;;;;;;-128.00;-1.00;-1.00;18448;336;7505737;-35
2023/07/01 08:15:50;;;;;;;21.80;16.80;;;;;;;-128.00;-1.00;-1.00;18470;295;7504513;-36
2023/07/01 08:18:16;;;;;;;30.00;20.90;;;;;;;-128.00;-1.00;-1.00;18485;300;7504456;-37
2023/07/01 08:20:46;;;;;;;27.70;17.30;;;;;;;-128.00;-1.00;-1.00;18465;295;7504789;-32
2023/07/01 08:23:13;;;;;;;28.90;18.80;;;;;;;-128.00;-1.00;-1.00;18458;295;7505380;-32
2023/07/01 08:25:40;;;;;;;19.30;14.20;;;;;;;-128.00;-1.00;-1.00;18454;308;7506447;-36
2023/07/01 08:28:05;;;;;;;21.50;16.40;;;;;;;-128.00;-1.00;-1.00;18482;295;7506176;-32
2023/07/01 08:30:31;;;;;;;22.00;17.90;;;;;;;-128.00;-1.00;-1.00;18474;348;7504299;-32
2023/07/01 08:32:57;;;;;;;21.10;17.90;;;;;;;-128.00;-1.00;-1.00;18449;295;7506054;-36
2023/07/01 08:35:23;;;;;;;22.90;16.90;;;;;;;-128.00;-1.00;-1.00;18896;295;7504159;-36
2023/07/01 08:37:49;;;;;;;27.10;18.40;;;;;;;-128.00;-1.00;-1.00;18868;296;7504551;-36
2023/07/01 08:40:15;;;;;;;30.70;18.20;;;;;;;-128.00;-1.00;-1.00;18877;347;7504141;-36
2023/07/01 08:42:48;;;;;;;21.70;16.90;;;;;;;-128.00;-1.00;-1.00;18879;295;7504405;-32
2023/07/01 08:45:14;;;;;;;22.00;17.50;;;;;;;-128.00;-1.00;-1.00;18475;296;7504317;-35
2023/07/01 08:47:40;;;;;;;23.70;16.90;;;;;;;-128.00;-1.00;-1.00;18455;348;7506224;-35
2023/07/01 08:50:06;;;;;;;24.60;18.30;;;;;;;-128.00;-1.00;-1.00;18479;288;7504398;-34
2023/07/01 08:52:50;;;;;;;16.80;14.50;;;;;;;-128.00;-1.00;-1.00;18458;288;7504350;-35
2023/07/01 08:55:16;;;;;;;21.70;15.10;;;;;;;-128.00;-1.00;-1.00;18444;284;7506330;-32
2023/07/01 08:57:41;;;;;;;19.80;15.60;;;;;;;-128.00;-1.00;-1.00;18476;288;7504112;-33
2023/07/01 09:00:09;;;;;;;26.00;15.80;;;;;;;-128.00;-1.00;-1.00;18478;288;7507079;-36
2023/07/01 09:02:36;;;;;;;19.90;15.20;;;;;;;-128.00;-1.00;-1.00;18473;295;7504663;-33
2023/07/01 09:05:02;;;;;;;20.70;15.70;;;;;;;-128.00;-1.00;-1.00;18464;337;7504583;-32
2023/07/01 09:07:29;;;;;;;20.40;14.70;;;;;;;-128.00;-1.00;-1.00;18474;288;7504842;-37
2023/07/01 09:09:59;;;;;;;19.80;14.30;;;;;;;-128.00;-1.00;-1.00;18453;296;7504473;-36
2023/07/01 09:12:29;;;;;;;22.80;14.40;;;;;;;-128.00;-1.00;-1.00;18445;295;7505460;-33
2023/07/01 09:14:59;;;;;;;23.70;15.80;;;;;;;-128.00;-1.00;-1.00;18470;295;7506236;-32
2023/07/01 09:17:30;;;;;;;26.50;17.80;;;;;;;-128.00;-1.00;-1.00;18479;288;7505862;-33
2023/07/01 09:20:04;;;;;;;20.10;14.40;;;;;;;-128.00;-1.00;-1.00;18470;296;7505292;-32
2023/07/01 09:22:30;;;;;;;26.10;14.90;;;;;;;-128.00;-1.00;-1.00;18130;296;7505987;-36
2023/07/01 09:24:56;;;;;;;20.40;15.20;;;;;;;-128.00;-1.00;-1.00;18481;288;7506061;-34
2023/07/01 09:27:22;;;;;;;18.80;15.10;;;;;;;-128.00;-1.00;-1.00;18443;348;7505128;-37
2023/07/01 09:29:48;;;;;;;14.80;13.20;;;;;;;-128.00;-1.00;-1.00;18469;296;7506760;-37
2023/07/01 09:32:28;;;;;;;25.60;17.00;;;;;;;-128.00;-1.00;-1.00;18450;295;7505231;-37
2023/07/01 09:34:57;;;;;;;22.20;14.90;;;;;;;-128.00;-1.00;-1.00;18467;288;7505023;-32
2023/07/01 09:37:24;;;;;;;28.70;17.70;;;;;;;-128.00;-1.00;-1.00;18469;295;7506251;-32
2023/07/01 09:39:49;;;;;;;17.10;12.00;;;;;;;-128.00;-1.00;-1.00;18463;288;7505259;-36
2023/07/01 09:42:18;;;;;;;16.40;12.80;;;;;;;-128.00;-1.00;-1.00;18477;308;7504683;-32
2023/07/01 09:45:08;;;;;;;15.20;12.10;;;;;;;-128.00;-1.00;-1.00;18507;295;7504192;-37
2023/07/01 09:47:34;;;;;;;22.80;16.10;;;;;;;-128.00;-1.00;-1.00;18468;295;7507481;-33
2023/07/01 09:50:01;;;;;;;17.00;14.30;;;;;;;-128.00;-1.00;-1.00;18471;296;7506203;-30
2023/07/01 09:52:35;;;;;;;24.20;15.90;;;;;;;-128.00;-1.00;-1.00;18454;296;7506340;-31
2023/07/01 09:55:02;;;;;;;27.40;17.80;;;;;;;-128.00;-1.00;-1.00;18484;296;7506186;-32
2023/07/01 09:57:28;;;;;;;22.90;17.70;;;;;;;-128.00;-1.00;-1.00;18461;288;7506241;-32
2023/07/01 09:59:54;;;;;;;18.90;14.80;;;;;;;-128.00;-1.00;-1.00;18473;336;7505808;-32
2023/07/01 10:02:20;;;;;;;18.80;14.40;;;;;;;-128.00;-1.00;-1.00;18481;348;7504402;-35
2023/07/01 10:04:46;;;;;;;13.50;11.10;;;;;;;-128.00;-1.00;-1.00;18475;295;7506259;-32
2023/07/01 10:07:11;;;;;;;13.20;11.30;;;;;;;-128.00;-1.00;-1.00;18462;288;7504885;-32
2023/07/01 10:09:44;;;;;;;16.40;12.60;;;;;;;-128.00;-1.00;-1.00;18487;288;7504190;-35
2023/07/01 10:12:10;;;;;;;11.60;9.90;;;;;;;-128.00;-1.00;-1.00;18475;295;7504520;-32
2023/07/01 10:14:36;;;;;;;13.50;10.60;;;;;;;-128.00;-1.00;-1.00;18470;323;7506077;-32
2023/07/01 10:17:03;;;;;;;14.60;9.40;;;;;;;-128.00;-1.00;-1.00;18464;295;7504626;-32
2023/07/01 10:19:30;;;;;;;13.90;10.10;;;;;;;-128.00;-1.00;-1.00;18465;348;7504827;-35
2023/07/01 10:22:20;;;;;;;12.40;10.30;;;;;;;-128.00;-1.00;-1.00;18458;344;7506447;-35
2023/07/01 10:24:53;;;;;;;17.80;11.20;;;;;;;-128.00;-1.00;-1.00;18467;347;7504922;-32
2023/07/01 10:27:59;;;;;;;10.30;9.20;;;;;;;-128.00;-1.00;-1.00;18473;288;7506947;-32
2023/07/01 10:30:26;;;;;;;17.20;10.90;;;;;;;-128.00;-1.00;-1.00;18475;295;7506052;-33
2023/07/01 10:32:51;;;;;;;11.90;9.60;;;;;;;-128.00;-1.00;-1.00;18464;295;7504412;-36
2023/07/01 10:35:17;;;;;;;16.80;10.20;;;;;;;-128.00;-1.00;-1.00;18461;288;7506605;-36
2023/07/01 10:37:44;;;;;;;15.50;12.50;;;;;;;-128.00;-1.00;-1.00;18456;296;7506155;-36
2023/07/01 10:40:41;;;;;;;16.00;11.10;;;;;;;-128.00;-1.00;-1.00;18468;295;7506214;-33
2023/07/01 10:43:32;;;;;;;13.40;11.80;;;;;;;-128.00;-1.00;-1.00;18460;295;7505339;-33
2023/07/01 10:46:11;;;;;;;16.20;10.60;;;;;;;-128.00;-1.00;-1.00;18456;336;7506283;-36
2023/07/01 10:48:42;;;;;;;14.00;9.10;;;;;;;-128.00;-1.00;-1.00;18480;295;7504609;-32
2023/07/01 10:51:12;;;;;;;20.10;14.20;;;;;;;-128.00;-1.00;-1.00;18501;284;7506312;-35
2023/07/01 10:53:59;;;;;;;19.60;14.50;;;;;;;-128.00;-1.00;-1.00;18466;296;7504665;-36
2023/07/01 10:56:26;;;;;;;18.80;13.20;;;;;;;-128.00;-1.00;-1.00;18501;295;7505203;-32
2023/07/01 10:59:16;;;;;;;17.80;11.60;;;;;;;-128.00;-1.00;-1.00;18435;296;7504149;-32
2023/07/01 11:01:43;;;;;;;16.70;11.30;;;;;;;-128.00;-1.00;-1.00;18466;295;7504303;-36
2023/07/01 11:04:09;;;;;;;19.70;13.40;;;;;;;-128.00;-1.00;-1.00;18453;295;7505420;-36
2023/07/01 11:06:50;;;;;;;18.20;13.50;;;;;;;-128.00;-1.00;-1.00;18901;288;7504523;-32
2023/07/01 11:09:29;;;;;;;10.60;6.20;;;;;;;-128.00;-1.00;-1.00;18472;284;7506119;-33
2023/07/01 11:11:55;;;;;;;17.70;12.00;;;;;;;-128.00;-1.00;-1.00;18443;296;7505134;-37
2023/07/01 11:14:23;;;;;;;23.90;10.50;;;;;;;-128.00;-1.00;-1.00;18477;295;7505955;-36
2023/07/01 11:16:49;;;;;;;16.60;12.40;;;;;;;-128.00;-1.00;-1.00;18479;347;7504596;-36
2023/07/01 11:19:16;;;;;;;16.80;10.70;;;;;;;-128.00;-1.00;-1.00;18853;348;7504157;-32
2023/07/01 11:21:42;;;;;;;17.00;10.70;;;;;;;-128.00;-1.00;-1.00;18465;296;7505154;-32
2023/07/01 11:24:09;;;;;;;18.40;9.30;;;;;;;-128.00;-1.00;-1.00;18463;295;7506222;-33
2023/07/01 11:26:36;;;;;;;20.00;11.60;;;;;;;-128.00;-1.00;-1.00;18435;348;7504622;-36
2023/07/01 11:29:02;;;;;;;14.20;9.00;;;;;;;-128.00;-1.00;-1.00;18458;288;7504824;-36
2023/07/01 11:31:36;;;;;;;20.80;12.50;;;;;;;-128.00;-1.00;-1.00;18469;348;7506134;-32
2023/07/01 11:34:02;;;;;;;13.70;8.90;;;;;;;-128.00;-1.00;-1.00;18500;288;7504730;-33
2023/07/01 11:36:48;;;;;;;19.60;9.40;;;;;;;-128.00;-1.00;-1.00;18457;288;7504588;-36
2023/07/01 11:39:16;;;;;;;18.70;11.20;;;;;;;-128.00;-1.00;-1.00;18483;288;7506213;-36
2023/07/01 11:41:43;;;;;;;22.10;11.10;;;;;;;-128.00;-1.00;-1.00;18460;344;7504493;-36
2023/07/01 11:44:11;;;;;;;17.70;9.90;;;;;;;-128.00;-1.00;-1.00;18476;295;7506030;-32
2023/07/01 11:46:38;;;;;;;13.30;8.70;;;;;;;-128.00;-1.00;-1.00;18493;297;7506004;-36
2023/07/01 11:49:22;;;;;;;15.00;8.80;;;;;;;-128.00;-1.00;-1.00;18447;288;7504472;-32
2023/07/01 11:51:51;;;;;;;10.50;7.20;;;;;;;-128.00;-1.00;-1.00;18479;296;7504596;-36
2023/07/01 11:54:18;;;;;;;13.60;8.40;;;;;;;-128.00;-1.00;-1.00;18455;295;7506976;-32
2023/07/01 11:56:44;;;;;;;8.50;5.90;;;;;;;-128.00;-1.00;-1.00;18460;288;7504879;-36
2023/07/01 11:59:10;;;;;;;15.10;7.40;;;;;;;-128.00;-1.00;-1.00;18492;296;7504711;-33
2023/07/01 12:01:37;;;;;;;11.40;5.70;;;;;;;-128.00;-1.00;-1.00;18464;296;7505150;-36
2023/07/01 12:04:16;;;;;;;12.80;6.70;;;;;;;-128.00;-1.00;-1.00;18454;295;7505011;-32